createdAt,value
2019-06-07T00:00:40.320Z,96707.82
2019-06-07T00:03:05.575Z,96708.50
2019-06-07T00:05:31.407Z,96711.73
2019-06-07T00:08:07.158Z,96709.98
2019-06-07T00:10:35.944Z,96712.12
2019-06-07T00:12:52.862Z,96702.41
2019-06-07T00:15:26.879Z,96703.84
2019-06-07T00:17:46.495Z,96701.78
2019-06-07T00:20:15.581Z,96704.77
2019-06-07T00:22:40.698Z,96707.22
2019-06-07T00:25:12.064Z,96710.52
2019-06-07T00:27:35.703Z,96706.09
2019-06-07T00:30:29.844Z,96705.69
2019-06-07T00:32:29.430Z,96705.13
2019-06-07T00:34:55.298Z,96707.77
2019-06-07T00:37:25.138Z,96708.20
2019-06-07T00:40:12.815Z,96703.45
2019-06-07T00:42:17.478Z,96712.88
2019-06-07T00:44:44.363Z,96705.34
2019-06-07T00:47:10.675Z,96703.81
2019-06-07T00:49:41.472Z,96702.47
2019-06-07T00:52:04.425Z,96701.01
2019-06-07T00:54:30.252Z,96697.80
2019-06-07T00:56:56.110Z,96699.47
2019-06-07T00:59:28.933Z,96699.03
2019-06-07T01:01:49.899Z,96703.23
2019-06-07T01:04:19.458Z,96697.27
2019-06-07T01:06:43.495Z,96700.67
2019-06-07T01:09:09.357Z,96700.34
2019-06-07T01:11:35.185Z,96693.95
2019-06-07T01:14:01.433Z,96693.84
2019-06-07T01:16:27.320Z,96687.07
2019-06-07T01:18:53.146Z,96696.26
2019-06-07T01:21:21.723Z,96692.41
2019-06-07T01:24:08.115Z,96694.38
2019-06-07T01:26:16.918Z,96686.96
2019-06-07T01:28:42.254Z,96682.56
2019-06-07T01:31:08.130Z,96679.12
2019-06-07T01:33:50.454Z,96683.53
2019-06-07T01:36:01.709Z,96685.97
2019-06-07T01:38:29.828Z,96682.88
2019-06-07T01:40:55.323Z,96677.69
2019-06-07T01:43:26.101Z,96675.45
2019-06-07T01:45:48.894Z,96666.28
2019-06-07T01:48:17.654Z,96667.73
2019-06-07T01:50:42.927Z,96649.81
2019-06-07T01:53:08.792Z,96652.59
2019-06-07T01:55:34.606Z,96648.62
2019-06-07T01:58:00.451Z,96651.47
2019-06-07T02:00:31.502Z,96649.17
2019-06-07T02:02:54.470Z,96660.54
2019-06-07T02:05:21.529Z,96659.23
2019-06-07T02:07:48.082Z,96659.86
2019-06-07T02:10:14.324Z,96661.86
2019-06-07T02:12:43.538Z,96659.97
2019-06-07T02:15:08.568Z,96660.88
2019-06-07T02:17:34.711Z,96658.68
2019-06-07T02:20:00.651Z,96661.31
2019-06-07T02:22:29.445Z,96662.30
2019-06-07T02:25:34.396Z,96658.56
2019-06-07T02:27:24.661Z,96656.78
2019-06-07T02:29:49.764Z,96650.27
2019-06-07T02:32:15.619Z,96657.45
2019-06-07T02:34:41.474Z,96665.41
2019-06-07T02:37:07.316Z,96660.31
2019-06-07T02:39:38.129Z,96661.87
2019-06-07T02:42:01.272Z,96663.31
2019-06-07T02:44:31.829Z,96650.70
2019-06-07T02:46:54.914Z,96638.33
2019-06-07T02:49:20.718Z,96635.00
2019-06-07T02:51:46.572Z,96629.56
2019-06-07T02:54:12.409Z,96632.23
2019-06-07T02:56:54.011Z,96640.05
2019-06-07T02:59:06.096Z,96640.63
2019-06-07T03:01:39.467Z,96628.68
2019-06-07T03:04:00.895Z,96628.80
2019-06-07T03:06:31.833Z,96633.22
2019-06-07T03:08:55.408Z,96632.66
2019-06-07T03:11:22.766Z,96630.81
2019-06-07T03:13:49.000Z,96630.00
2019-06-07T03:16:19.884Z,96628.11
2019-06-07T03:18:56.907Z,96632.98
2019-06-07T03:21:31.482Z,96629.45
2019-06-07T03:23:57.942Z,96626.59
2019-06-07T03:26:25.043Z,96634.78
2019-06-07T03:28:51.173Z,96633.47
2019-06-07T03:31:17.071Z,96635.78
2019-06-07T03:33:45.565Z,96604.72
2019-06-07T03:36:23.288Z,96638.00
2019-06-07T03:38:39.928Z,96639.11
2019-06-07T03:41:06.070Z,96631.23
2019-06-07T03:43:34.960Z,96634.41
2019-06-07T03:45:59.725Z,96636.20
2019-06-07T03:48:25.559Z,96642.17
2019-06-07T03:51:04.166Z,96644.28
2019-06-07T03:53:19.228Z,96642.50
2019-06-07T03:55:45.233Z,96643.92
2019-06-07T03:58:31.312Z,96647.94
2019-06-07T04:00:42.752Z,96650.70
2019-06-07T04:03:06.722Z,96651.80
2019-06-07T04:05:37.100Z,96656.66
2019-06-07T04:08:00.358Z,96652.89
2019-06-07T04:10:44.856Z,96664.14
2019-06-07T04:12:54.026Z,96673.22
2019-06-07T04:15:19.892Z,96676.88
2019-06-07T04:18:01.453Z,96681.48
2019-06-07T04:20:13.482Z,96679.06
2019-06-07T04:22:42.442Z,96685.59
2019-06-07T04:25:09.385Z,96686.20
2019-06-07T04:27:37.716Z,96689.91
2019-06-07T04:30:08.269Z,96687.75
2019-06-07T04:32:37.143Z,96685.59
2019-06-07T04:35:03.737Z,96679.98
2019-06-07T04:37:30.895Z,96682.59
2019-06-07T04:39:58.521Z,96682.56
2019-06-07T04:42:24.477Z,96682.89
2019-06-07T04:44:50.516Z,96684.41
2019-06-07T04:47:17.696Z,96678.96
2019-06-07T04:49:46.331Z,96679.77
2019-06-07T04:52:12.213Z,96673.13
2019-06-07T04:54:45.221Z,96674.15
2019-06-07T04:57:05.799Z,96669.36
2019-06-07T05:00:06.600Z,96665.79
2019-06-07T05:01:59.416Z,96671.88
2019-06-07T05:04:25.270Z,96673.45
2019-06-07T05:06:51.117Z,96658.76
2019-06-07T05:09:16.963Z,96665.09
2019-06-07T05:11:44.984Z,96665.16
2019-06-07T05:14:10.540Z,96669.81
2019-06-07T05:16:38.834Z,96673.28
2019-06-07T05:19:04.280Z,96675.24
2019-06-07T05:21:49.111Z,96676.24
2019-06-07T05:24:07.557Z,96679.60
2019-06-07T05:26:25.740Z,96676.77
2019-06-07T05:28:51.582Z,96677.73
2019-06-07T05:31:17.423Z,96676.21
2019-06-07T05:33:43.749Z,96664.36
2019-06-07T05:36:09.767Z,96661.52
2019-06-07T05:38:36.729Z,96658.87
2019-06-07T05:41:03.374Z,96659.52
2019-06-07T05:43:29.314Z,96662.14
2019-06-07T05:45:55.393Z,96659.64
2019-06-07T05:48:21.398Z,96659.59
2019-06-07T05:50:56.036Z,96661.19
2019-06-07T05:53:15.038Z,96659.69
2019-06-07T05:55:44.154Z,96655.10
2019-06-07T05:58:08.785Z,96649.11
2019-06-07T06:00:36.362Z,96647.80
2019-06-07T06:03:05.836Z,96655.72
2019-06-07T06:05:34.214Z,96647.63
2019-06-07T06:07:57.901Z,96641.19
2019-06-07T06:10:23.761Z,96647.17
2019-06-07T06:12:51.647Z,96655.09
2019-06-07T06:15:18.260Z,96646.87
2019-06-07T06:17:47.947Z,96637.73
2019-06-07T06:20:12.250Z,96639.08
2019-06-07T06:22:41.286Z,96631.88
2019-06-07T06:30:07.282Z,96633.72
2019-06-07T06:32:42.997Z,96629.70
2019-06-07T06:35:00.913Z,96629.81
2019-06-07T06:37:26.754Z,96636.03
2019-06-07T06:39:52.592Z,96633.61
2019-06-07T06:42:18.558Z,96637.95
2019-06-07T06:44:46.422Z,96641.99
2019-06-07T06:47:12.143Z,96639.00
2019-06-07T06:49:40.080Z,96640.66
2019-06-07T06:52:05.756Z,96640.34
2019-06-07T06:54:40.892Z,96632.52
2019-06-07T06:57:17.995Z,96630.28
2019-06-07T06:59:38.868Z,96631.36
2019-06-07T07:01:55.071Z,96631.22
2019-06-07T07:04:21.724Z,96633.64
2019-06-07T07:06:48.045Z,96633.20
2019-06-07T07:09:13.957Z,96635.36
2019-06-07T07:11:55.269Z,96625.66
2019-06-07T07:14:07.532Z,96633.43
2019-06-07T07:16:33.386Z,96627.45
2019-06-07T07:18:59.222Z,96621.38
2019-06-07T07:21:25.074Z,96622.78
2019-06-07T07:24:14.783Z,96620.16
2019-06-07T07:26:18.787Z,96616.53
2019-06-07T07:28:46.590Z,96619.95
2019-06-07T07:31:12.574Z,96623.73
2019-06-07T07:34:23.922Z,96616.64
2019-06-07T07:36:28.204Z,96617.64
2019-06-07T07:38:33.939Z,96624.25
2019-06-07T07:41:14.524Z,96616.97
2019-06-07T07:43:27.539Z,96623.28
2019-06-07T07:45:59.198Z,96608.91
2019-06-07T07:48:21.115Z,96609.33
2019-06-07T07:50:49.792Z,96599.75
2019-06-07T07:53:14.720Z,96591.30
2019-06-07T07:55:40.543Z,96588.59
2019-06-07T07:58:06.606Z,96582.60
2019-06-07T08:01:09.709Z,96582.80
2019-06-07T08:03:04.379Z,96587.47
2019-06-07T08:05:42.062Z,96579.54
2019-06-07T08:08:00.385Z,96576.61
2019-06-07T08:10:23.866Z,96572.33
2019-06-07T08:13:12.901Z,96570.28
2019-06-07T08:15:17.570Z,96567.38
2019-06-07T08:17:43.393Z,96567.55
2019-06-07T08:20:09.256Z,96565.77
2019-06-07T08:22:35.105Z,96564.63
2019-06-07T08:25:04.187Z,96556.05
2019-06-07T08:27:28.684Z,96551.87
2019-06-07T08:30:15.920Z,96547.40
2019-06-07T08:32:22.268Z,96540.70
2019-06-07T08:34:49.915Z,96548.89
2019-06-07T08:37:15.870Z,96552.39
2019-06-07T08:39:41.738Z,96542.34
2019-06-07T08:42:17.880Z,96547.55
2019-06-07T08:44:35.361Z,96544.37
2019-06-07T08:47:19.474Z,96538.61
2019-06-07T08:49:29.003Z,96535.17
2019-06-07T08:52:03.031Z,96534.80
2019-06-07T08:54:23.480Z,96531.61
2019-06-07T08:56:52.723Z,96526.70
2019-06-07T08:59:17.512Z,96527.02
2019-06-07T09:01:43.385Z,96520.23
2019-06-07T09:04:11.124Z,96527.02
2019-06-07T09:09:06.709Z,96523.47
2019-06-07T09:11:32.550Z,96521.90
2019-06-07T09:14:02.226Z,96519.38
2019-06-07T09:16:26.146Z,96514.43
2019-06-07T09:18:51.981Z,96525.50
2019-06-07T09:21:18.061Z,96518.61
2019-06-07T09:23:43.903Z,96507.79
2019-06-07T09:26:17.635Z,96513.14
2019-06-07T09:28:37.808Z,96511.33
2019-06-07T09:31:09.514Z,96509.87
2019-06-07T09:33:31.467Z,96503.98
2019-06-07T09:35:58.671Z,96501.16
2019-06-07T09:38:26.658Z,96498.68
2019-06-07T09:40:52.864Z,96504.92
2019-06-07T09:44:00.067Z,96499.64
2019-06-07T09:45:46.666Z,96496.54
2019-06-07T09:48:16.482Z,96493.83
2019-06-07T09:50:40.275Z,96502.09
2019-06-07T09:53:20.076Z,96488.18
2019-06-07T09:55:33.978Z,96482.54
2019-06-07T09:58:09.079Z,96481.16
2019-06-07T10:00:40.585Z,96478.14
2019-06-07T10:02:55.684Z,96472.55
2019-06-07T10:05:21.523Z,96464.23
2019-06-07T10:08:02.450Z,96474.49
2019-06-07T10:12:42.971Z,96463.20
2019-06-07T10:15:09.415Z,96460.95
2019-06-07T10:17:35.270Z,96457.97
2019-06-07T10:20:02.570Z,96451.83
2019-06-07T10:22:28.868Z,96452.75
2019-06-07T10:24:54.733Z,96446.10
2019-06-07T10:27:20.566Z,96445.81
2019-06-07T10:29:46.379Z,96436.52
2019-06-07T10:32:12.221Z,96440.27
2019-06-07T10:34:38.067Z,96438.31
2019-06-07T10:37:07.598Z,96440.07
2019-06-07T10:39:44.948Z,96437.08
2019-06-07T10:42:00.826Z,96430.02
2019-06-07T10:44:26.779Z,96434.65
2019-06-07T10:46:52.624Z,96426.31
2019-06-07T10:49:18.478Z,96430.25
2019-06-07T10:51:44.319Z,96416.39
2019-06-07T10:54:24.117Z,96417.52
2019-06-07T10:56:37.933Z,96431.07
2019-06-07T10:59:05.186Z,96420.00
2019-06-07T11:01:31.242Z,96414.51
2019-06-07T11:03:57.075Z,96424.80
2019-06-07T11:06:22.957Z,96423.38
2019-06-07T11:08:49.323Z,96421.30
2019-06-07T11:11:15.182Z,96412.88
2019-06-07T11:13:41.024Z,96418.02
2019-06-07T11:16:07.045Z,96415.64
2019-06-07T11:18:32.992Z,96409.30
2019-06-07T11:20:58.841Z,96409.30
2019-06-07T11:23:24.668Z,96406.73
2019-06-07T11:25:50.525Z,96411.84
2019-06-07T11:28:16.381Z,96411.08
2019-06-07T11:30:42.253Z,96404.23
2019-06-07T11:33:08.493Z,96401.66
2019-06-07T11:35:34.454Z,96408.97
2019-06-07T11:38:00.284Z,96410.81
2019-06-07T11:40:33.897Z,96410.23
2019-06-07T11:42:53.911Z,96404.80
2019-06-07T11:45:19.780Z,96410.36
2019-06-07T11:47:45.611Z,96411.91
2019-06-07T11:50:11.917Z,96416.15
2019-06-07T11:52:37.784Z,96406.85
2019-06-07T11:55:06.882Z,96395.84
2019-06-07T11:57:32.741Z,96399.25
2019-06-07T11:59:58.580Z,96402.67
2019-06-07T12:02:24.439Z,96397.40
2019-06-07T12:04:50.277Z,96398.13
2019-06-07T12:07:17.628Z,96381.58
2019-06-07T12:09:56.001Z,96381.56
2019-06-07T12:12:12.599Z,96385.09
2019-06-07T12:14:38.473Z,96361.49
2019-06-07T12:17:04.314Z,96368.83
2019-06-07T12:19:30.202Z,96365.56
2019-06-07T12:21:56.055Z,96365.31
2019-06-07T12:24:21.917Z,96361.56
2019-06-07T12:26:47.760Z,96364.59
2019-06-07T12:29:14.868Z,96362.31
2019-06-07T12:31:41.060Z,96361.86
2019-06-07T12:34:06.939Z,96365.87
2019-06-07T12:36:32.847Z,96356.24
2019-06-07T12:38:58.703Z,96348.00
2019-06-07T12:41:24.569Z,96350.87
2019-06-07T12:43:50.450Z,96356.11
2019-06-07T12:46:22.395Z,96354.64
2019-06-07T12:48:44.030Z,96346.88
2019-06-07T12:51:09.891Z,96352.92
2019-06-07T12:53:35.734Z,96340.38
2019-06-07T12:56:01.610Z,96332.58
2019-06-07T12:58:34.470Z,96328.23
2019-06-07T13:00:55.181Z,96329.39
2019-06-07T13:03:22.488Z,96317.81
2019-06-07T13:05:48.479Z,96317.40
2019-06-07T13:08:15.515Z,96322.47
2019-06-07T13:10:41.490Z,96317.49
2019-06-07T13:13:07.354Z,96305.69
2019-06-07T13:15:33.219Z,96306.76
2019-06-07T13:17:59.073Z,96304.29
2019-06-07T13:20:25.058Z,96301.47
2019-06-07T13:22:50.910Z,96304.41
2019-06-07T13:25:18.452Z,96307.70
2019-06-07T13:27:44.470Z,96311.88
2019-06-07T13:30:11.200Z,96306.65
2019-06-07T13:32:37.179Z,96298.63
2019-06-07T13:35:07.558Z,96298.56
2019-06-07T13:37:33.574Z,96293.72
2019-06-07T13:39:59.667Z,96285.12
2019-06-07T13:42:26.810Z,96292.50
2019-06-07T13:44:52.671Z,96282.11
2019-06-07T13:47:18.924Z,96288.53
2019-06-07T13:49:44.991Z,96285.64
2019-06-07T13:52:10.875Z,96284.64
2019-06-07T13:54:36.715Z,96276.61
2019-06-07T13:57:03.285Z,96283.66
2019-06-07T13:59:29.365Z,96276.70
2019-06-07T14:01:55.247Z,96268.83
2019-06-07T14:04:21.108Z,96274.72
2019-06-07T14:06:46.984Z,96276.55
2019-06-07T14:09:12.840Z,96274.42
2019-06-07T14:11:49.978Z,96267.70
2019-06-07T14:14:06.513Z,96256.13
2019-06-07T14:16:32.430Z,96265.64
2019-06-07T14:18:58.409Z,96261.41
2019-06-07T14:21:24.638Z,96266.08
2019-06-07T14:23:50.548Z,96261.55
2019-06-07T14:26:16.433Z,96261.94
2019-06-07T14:28:42.280Z,96259.41
2019-06-07T14:31:08.165Z,96254.12
2019-06-07T14:33:34.198Z,96254.72
2019-06-07T14:36:00.168Z,96250.13
2019-06-07T14:38:27.310Z,96253.36
2019-06-07T14:40:53.345Z,96251.58
2019-06-07T14:43:19.264Z,96251.56
2019-06-07T14:45:45.131Z,96245.14
2019-06-07T14:48:11.008Z,96246.56
2019-06-07T14:50:36.889Z,96246.26
2019-06-07T14:53:06.750Z,96242.16
2019-06-07T14:55:33.012Z,96246.10
2019-06-07T14:57:58.879Z,96244.35
2019-06-07T15:00:38.903Z,96244.68
2019-06-07T15:03:04.880Z,96238.42
2019-06-07T15:05:31.291Z,96234.48
2019-06-07T15:07:58.882Z,96230.59
2019-06-07T15:10:24.687Z,96229.42
2019-06-07T15:12:50.541Z,96225.72
2019-06-07T15:15:16.505Z,96228.67
2019-06-07T15:17:42.492Z,96227.41
2019-06-07T15:20:08.559Z,96225.48
2019-06-07T15:22:34.523Z,96224.45
2019-06-07T15:25:00.521Z,96226.34
2019-06-07T15:27:27.224Z,96217.73
2019-06-07T15:29:53.111Z,96220.22
2019-06-07T15:32:18.962Z,96212.97
2019-06-07T15:34:44.805Z,96211.81
2019-06-07T15:37:10.665Z,96190.83
2019-06-07T15:39:36.667Z,96211.31
2019-06-07T15:42:03.516Z,96214.06
2019-06-07T15:44:29.407Z,96211.34
2019-06-07T15:46:55.567Z,96211.05
2019-06-07T15:49:21.672Z,96209.43
2019-06-07T15:51:47.537Z,96217.28
2019-06-07T15:54:13.381Z,96215.03
2019-06-07T15:56:39.240Z,96212.65
2019-06-07T15:59:05.091Z,96205.66
2019-06-07T16:01:31.209Z,96204.20
2019-06-07T16:03:57.215Z,96198.49
2019-06-07T16:06:23.108Z,96197.69
2019-06-07T16:08:49.473Z,96195.22
2019-06-07T16:11:15.293Z,96193.53
2019-06-07T16:13:41.274Z,96190.08
2019-06-07T16:16:07.187Z,96180.57
2019-06-07T16:18:33.451Z,96185.97
2019-06-07T16:20:59.323Z,96182.42
2019-06-07T16:23:25.198Z,96170.51
2019-06-07T16:25:51.076Z,96167.56
2019-06-07T16:28:17.009Z,96177.30
2019-06-07T16:30:42.887Z,96174.40
2019-06-07T16:33:08.763Z,96171.69
2019-06-07T16:35:34.980Z,96162.38
2019-06-07T16:38:00.885Z,96165.70
2019-06-07T16:40:26.874Z,96162.69
2019-06-07T16:42:52.761Z,96156.83
2019-06-07T16:45:19.165Z,96154.95
2019-06-07T16:47:47.542Z,96150.53
2019-06-07T16:50:14.825Z,96142.81
2019-06-07T16:52:41.924Z,96136.37
2019-06-07T16:55:08.722Z,96135.41
2019-06-07T16:57:34.558Z,96130.80
2019-06-07T17:00:00.437Z,96131.23
2019-06-07T17:02:26.280Z,96132.06
2019-06-07T17:04:52.113Z,96139.70
2019-06-07T17:07:17.948Z,96140.11
2019-06-07T17:09:45.683Z,96146.03
2019-06-07T17:12:11.570Z,96144.03
2019-06-07T17:14:38.338Z,96145.03
2019-06-07T17:17:04.432Z,96144.47
2019-06-07T17:19:30.427Z,96150.00
2019-06-07T17:21:57.087Z,96148.25
2019-06-07T17:24:26.580Z,96141.48
2019-06-07T17:26:51.005Z,96130.48
2019-06-07T17:29:16.883Z,96129.25
2019-06-07T17:31:44.665Z,96125.95
2019-06-07T17:34:10.535Z,96131.53
2019-06-07T17:36:36.492Z,96129.37
2019-06-07T17:39:05.525Z,96130.21
2019-06-07T17:41:50.278Z,96139.19
2019-06-07T17:44:01.335Z,96137.36
2019-06-07T17:46:27.185Z,96138.66
2019-06-07T17:48:53.027Z,96139.86
2019-06-07T17:51:18.868Z,96136.59
2019-06-07T17:53:45.830Z,96137.92
2019-06-07T17:56:11.913Z,96136.23
2019-06-07T17:58:37.773Z,96133.66
2019-06-07T18:01:03.732Z,96140.86
2019-06-07T18:03:29.620Z,96142.38
2019-06-07T18:05:56.651Z,96141.72
2019-06-07T18:08:23.003Z,96138.36
2019-06-07T18:10:50.083Z,96133.80
2019-06-07T18:13:16.004Z,96132.02
2019-06-07T18:15:46.845Z,96137.39
2019-06-07T18:18:13.923Z,96139.45
2019-06-07T18:20:39.980Z,96130.91
2019-06-07T18:23:06.050Z,96135.66
2019-06-07T18:25:31.924Z,96129.83
2019-06-07T18:27:58.980Z,96126.30
2019-06-07T18:30:24.938Z,96120.13
2019-06-07T18:32:50.878Z,96133.16
2019-06-07T18:35:16.823Z,96134.06
2019-06-07T18:37:42.680Z,96144.81
2019-06-07T18:40:09.309Z,96149.30
2019-06-07T18:42:35.169Z,96154.38
2019-06-07T18:45:03.001Z,96156.62
2019-06-07T18:47:28.849Z,96164.94
2019-06-07T18:49:55.550Z,96171.36
2019-06-07T18:52:23.387Z,96178.05
2019-06-07T18:54:49.255Z,96180.58
2019-06-07T18:57:15.121Z,96185.14
2019-06-07T18:59:41.022Z,96190.20
2019-06-07T19:02:06.994Z,96188.06
2019-06-07T19:04:32.884Z,96187.64
2019-06-07T19:06:58.733Z,96194.48
2019-06-07T19:09:24.648Z,96197.72
2019-06-07T19:11:50.912Z,96199.06
2019-06-07T19:14:16.835Z,96206.66
2019-06-07T19:16:42.745Z,96219.59
2019-06-07T19:19:08.615Z,96222.91
2019-06-07T19:21:34.589Z,96220.67
2019-06-07T19:24:00.487Z,96232.30
2019-06-07T19:26:26.360Z,96232.48
2019-06-07T19:28:52.529Z,96236.78
2019-06-07T19:31:18.500Z,96251.36
2019-06-07T19:33:49.090Z,96248.28
2019-06-07T19:36:12.442Z,96238.11
2019-06-07T19:38:38.466Z,96248.28
2019-06-07T19:41:19.000Z,96250.26
2019-06-07T19:43:32.123Z,96260.84
2019-06-07T19:45:58.272Z,96266.94
2019-06-07T19:48:24.312Z,96258.42
2019-06-07T19:50:50.155Z,96261.28
2019-06-07T19:53:16.007Z,96257.34
2019-06-07T19:55:42.003Z,96251.08
2019-06-07T19:58:07.882Z,96243.40
2019-06-07T20:00:33.837Z,96241.09
2019-06-07T20:02:59.979Z,96240.00
2019-06-07T20:05:25.954Z,96236.13
2019-06-07T20:07:52.710Z,96242.99
2019-06-07T20:10:18.781Z,96244.13
2019-06-07T20:12:44.776Z,96242.46
2019-06-07T20:15:27.671Z,96247.00
2019-06-07T20:17:39.034Z,96248.75
2019-06-07T20:20:06.012Z,96196.27
2019-06-07T20:22:31.928Z,96259.23
2019-06-07T20:24:58.851Z,96260.17
2019-06-07T20:27:24.903Z,96273.77
2019-06-07T20:29:50.757Z,96271.60
2019-06-07T20:32:16.641Z,96280.85
2019-06-07T20:34:44.772Z,96287.59
2019-06-07T20:37:10.737Z,96290.78
2019-06-07T20:39:36.634Z,96297.66
2019-06-07T20:42:03.511Z,96309.47
2019-06-07T20:44:29.508Z,96312.17
2019-06-07T20:46:55.498Z,96317.34
2019-06-07T20:49:21.357Z,96319.63
2019-06-07T20:51:47.241Z,96318.41
2019-06-07T20:54:13.207Z,96323.72
2019-06-07T20:56:39.102Z,96327.58
2019-06-07T20:59:04.976Z,96327.84
2019-06-07T21:01:30.861Z,96345.09
2019-06-07T21:03:56.715Z,96364.77
2019-06-07T21:06:22.623Z,96399.83
2019-06-07T21:08:48.505Z,96431.28
2019-06-07T21:11:15.408Z,96453.00
2019-06-07T21:13:41.252Z,96470.96
2019-06-07T21:16:08.243Z,96478.56
2019-06-07T21:18:34.358Z,96495.17
2019-06-07T21:21:00.342Z,96519.52
2019-06-07T21:23:26.207Z,96538.11
2019-06-07T21:25:52.082Z,96546.92
2019-06-07T21:28:17.938Z,96548.64
2019-06-07T21:30:43.829Z,96559.78
2019-06-07T21:33:09.833Z,96574.36
2019-06-07T21:35:35.679Z,96601.53
2019-06-07T21:38:01.960Z,96628.67
2019-06-07T21:40:27.955Z,96641.14
2019-06-07T21:42:53.812Z,96655.30
2019-06-07T21:45:19.697Z,96667.67
2019-06-07T21:47:45.540Z,96699.52
2019-06-07T21:50:12.769Z,96695.88
2019-06-07T21:52:38.744Z,96690.71
2019-06-07T21:55:05.297Z,96721.09
2019-06-07T21:57:31.165Z,96729.98
2019-06-07T21:59:57.010Z,96752.98
2019-06-07T22:02:22.871Z,96774.95
2019-06-07T22:04:48.698Z,96787.94
2019-06-07T22:07:14.553Z,96783.73
2019-06-07T22:09:40.436Z,96785.44
2019-06-07T22:12:06.433Z,96780.06
2019-06-07T22:14:32.262Z,96776.55
2019-06-07T22:16:58.090Z,96787.55
2019-06-07T22:19:23.974Z,96786.05
2019-06-07T22:22:02.096Z,96795.47
2019-06-07T22:24:17.587Z,96801.37
2019-06-07T22:26:43.441Z,96823.36
2019-06-07T22:29:10.327Z,96832.27
2019-06-07T22:31:36.372Z,96833.30
2019-06-07T22:34:02.647Z,96834.84
2019-06-07T22:36:28.900Z,96846.78
2019-06-07T22:38:54.753Z,96839.52
2019-06-07T22:41:20.615Z,96837.88
2019-06-07T22:43:46.616Z,96845.48
2019-06-07T22:46:12.991Z,96841.91
2019-06-07T22:48:38.943Z,96840.54
2019-06-07T22:51:08.832Z,96840.39
2019-06-07T22:53:36.512Z,96837.31
2019-06-07T22:56:07.779Z,96850.62
2019-06-07T22:58:33.747Z,96852.33
2019-06-07T23:00:59.551Z,96865.83
2019-06-07T23:03:25.429Z,96862.50
2019-06-07T23:05:51.318Z,96868.84
2019-06-07T23:08:17.154Z,96868.36
2019-06-07T23:10:43.021Z,96875.01
2019-06-07T23:13:09.297Z,96881.47
2019-06-07T23:15:35.236Z,96875.96
2019-06-07T23:18:01.087Z,96881.42
2019-06-07T23:20:26.934Z,96883.67
2019-06-07T23:22:52.863Z,96889.80
2019-06-07T23:25:22.410Z,96901.83
2019-06-07T23:27:46.471Z,96896.53
2019-06-07T23:30:12.595Z,96889.39
2019-06-07T23:32:38.450Z,96889.00
2019-06-07T23:35:05.014Z,96896.09
2019-06-07T23:37:30.863Z,96897.66
2019-06-07T23:39:56.707Z,96905.87
2019-06-07T23:42:22.574Z,96880.59
2019-06-07T23:44:48.422Z,96887.38
2019-06-07T23:47:17.004Z,96883.94
2019-06-07T23:49:42.220Z,96874.70
2019-06-07T23:52:08.054Z,96879.30
2019-06-07T23:54:33.899Z,96884.16
2019-06-07T23:56:59.752Z,96873.02
2019-06-07T23:59:25.576Z,96871.76
